Wetterdaten: Woche 14.10.13 - 20.10.13 (KW42)
Datum Zeit Temp. A. Feuchte A. Luftdruck Regen Wind Richtung Taupunkt Windchill Windben
14.10.2013 00:00 5,7 C 84 % 1022,4 hPa 0,0 l/m 0,0 km/h N 3,2 C 5,7 C 0,4 km/h
14.10.2013 01:00 5,3 C 83 % 1022,2 hPa 0,0 l/m 0,0 km/h N 2,6 C 5,3 C 0,8 km/h
14.10.2013 02:00 4,9 C 83 % 1022,1 hPa 0,0 l/m 0,0 km/h N 2,2 C 4,9 C 0,4 km/h
14.10.2013 03:00 4,4 C 83 % 1022,2 hPa 0,0 l/m 0,0 km/h N 1,7 C 4,4 C 0,0 km/h
14.10.2013 04:00 4,0 C 82 % 1022,2 hPa 0,0 l/m 0,0 km/h N 1,2 C 4,0 C 0,0 km/h
14.10.2013 05:00 3,9 C 82 % 1022,3 hPa 0,0 l/m 0,0 km/h N 1,1 C 3,9 C 0,0 km/h
14.10.2013 06:00 4,6 C 80 % 1022,4 hPa 0,0 l/m 0,0 km/h N 1,5 C 4,6 C 0,8 km/h
14.10.2013 07:00 4,8 C 81 % 1022,4 hPa 0,0 l/m 0,0 km/h N 1,7 C 4,8 C 0,0 km/h
14.10.2013 08:00 5,2 C 79 % 1022,6 hPa 0,0 l/m 0,0 km/h N 1,9 C 5,2 C 0,0 km/h
14.10.2013 09:00 7,4 C 77 % 1022,9 hPa 0,0 l/m 0,1 km/h N 3,7 C 7,4 C 0,8 km/h
14.10.2013 10:00 9,8 C 78 % 1022,8 hPa 0,0 l/m 0,7 km/h N 6,1 C 9,8 C 4,4 km/h
14.10.2013 11:00 12,2 C 82 % 1022,1 hPa 0,0 l/m 1,1 km/h N 9,2 C 12,2 C 6,0 km/h
14.10.2013 12:00 13,1 C 78 % 1022,0 hPa 0,0 l/m 0,8 km/h N 9,4 C 13,1 C 6,0 km/h
14.10.2013 13:00 13,5 C 78 % 1021,3 hPa 0,0 l/m 0,8 km/h N 9,8 C 13,5 C 5,6 km/h
14.10.2013 14:00 13,3 C 78 % 1020,7 hPa 0,0 l/m 0,0 km/h N 9,5 C 13,3 C 0,0 km/h
14.10.2013 15:00 13,3 C 79 % 1020,4 hPa 0,0 l/m 0,0 km/h N 9,7 C 13,3 C 0,0 km/h
14.10.2013 16:00 12,8 C 81 % 1020,0 hPa 0,0 l/m 0,0 km/h N 9,5 C 12,8 C 0,0 km/h
14.10.2013 17:00 12,5 C 82 % 1019,8 hPa 0,0 l/m 0,0 km/h N 9,5 C 12,5 C 0,0 km/h
14.10.2013 18:00 12,1 C 83 % 1019,8 hPa 0,0 l/m 0,0 km/h N 9,3 C 12,1 C 0,0 km/h
14.10.2013 19:00 11,7 C 84 % 1019,8 hPa 0,0 l/m 0,0 km/h N 9,1 C 11,7 C 0,0 km/h
14.10.2013 20:00 11,4 C 84 % 1019,6 hPa 0,0 l/m 0,0 km/h N 8,8 C 11,4 C 0,0 km/h
14.10.2013 21:00 11,1 C 84 % 1019,3 hPa 0,0 l/m 0,0 km/h N 8,5 C 11,1 C 0,0 km/h
14.10.2013 22:00 11,0 C 84 % 1019,0 hPa 0,0 l/m 0,0 km/h N 8,4 C 11,0 C 0,0 km/h
14.10.2013 23:00 10,9 C 84 % 1018,4 hPa 0,0 l/m 0,0 km/h N 8,3 C 10,9 C 0,0 km/h
15.10.2013 00:00 10,9 C 84 % 1017,9 hPa 0,0 l/m 0,0 km/h N 8,3 C 10,9 C 0,0 km/h
15.10.2013 01:00 10,8 C 84 % 1017,6 hPa 0,0 l/m 0,0 km/h N 8,3 C 10,8 C 0,0 km/h
15.10.2013 02:00 10,8 C 84 % 1017,2 hPa 0,0 l/m 0,0 km/h N 8,2 C 10,8 C 0,0 km/h
15.10.2013 03:00 10,7 C 84 % 1016,7 hPa 0,0 l/m 0,0 km/h N 8,0 C 10,7 C 0,0 km/h
15.10.2013 04:00 10,7 C 83 % 1016,2 hPa 0,0 l/m 0,0 km/h N 7,9 C 10,7 C 0,0 km/h
15.10.2013 05:00 10,7 C 83 % 1015,8 hPa 0,0 l/m 0,0 km/h N 7,9 C 10,7 C 0,0 km/h
15.10.2013 06:00 10,3 C 83 % 1015,6 hPa 0,0 l/m 0,0 km/h N 7,5 C 10,3 C 0,0 km/h
15.10.2013 07:00 9,7 C 83 % 1015,5 hPa 0,0 l/m 0,0 km/h N 6,9 C 9,7 C 0,0 km/h
15.10.2013 08:00 9,9 C 82 % 1015,4 hPa 0,0 l/m 0,0 km/h N 6,9 C 9,9 C 0,0 km/h
15.10.2013 09:00 11,2 C 82 % 1015,3 hPa 0,0 l/m 0,0 km/h N 8,2 C 11,2 C 0,0 km/h
15.10.2013 10:00 12,4 C 78 % 1014,9 hPa 0,0 l/m 0,0 km/h N 8,7 C 12,4 C 0,0 km/h
15.10.2013 11:00 14,9 C 72 % 1014,2 hPa 0,0 l/m 0,0 km/h N 9,7 C 14,9 C 0,0 km/h
15.10.2013 12:00 16,7 C 66 % 1013,7 hPa 0,0 l/m 0,0 km/h N 10,2 C 16,7 C 0,0 km/h
15.10.2013 13:00 17,4 C 64 % 1012,8 hPa 0,0 l/m 0,0 km/h N 10,6 C 17,4 C 0,0 km/h
15.10.2013 14:00 17,7 C 64 % 1012,0 hPa 0,0 l/m 0,0 km/h N 10,7 C 17,7 C 0,0 km/h
15.10.2013 15:00 17,6 C 65 % 1011,3 hPa 0,0 l/m 0,0 km/h N 10,8 C 17,6 C 0,0 km/h
15.10.2013 16:00 17,4 C 65 % 1010,8 hPa 0,0 l/m 0,0 km/h N 10,7 C 17,4 C 0,0 km/h
15.10.2013 17:00 17,1 C 67 % 1010,1 hPa 0,0 l/m 0,0 km/h N 10,9 C 17,1 C 0,0 km/h
15.10.2013 18:00 15,4 C 73 % 1009,9 hPa 0,0 l/m 0,0 km/h N 10,5 C 15,4 C 0,0 km/h
15.10.2013 19:00 13,0 C 77 % 1009,8 hPa 0,0 l/m 0,0 km/h N 9,1 C 13,0 C 0,0 km/h
15.10.2013 20:00 11,0 C 82 % 1009,3 hPa 0,0 l/m 0,0 km/h N 8,1 C 11,0 C 0,0 km/h
15.10.2013 21:00 10,0 C 84 % 1008,8 hPa 0,0 l/m 0,0 km/h N 7,4 C 10,0 C 0,0 km/h
15.10.2013 22:00 9,0 C 84 % 1008,6 hPa 0,0 l/m 0,0 km/h N 6,4 C 9,0 C 0,0 km/h
15.10.2013 23:00 9,4 C 82 % 1008,5 hPa 0,0 l/m 0,0 km/h N 6,4 C 9,4 C 0,0 km/h
16.10.2013 00:00 10,9 C 81 % 1008,2 hPa 0,0 l/m 7,2 km/h N 7,8 C 10,2 C 21,7 km/h
16.10.2013 01:00 11,4 C 76 % 1008,1 hPa 0,0 l/m 7,7 km/h N 7,2 C 10,4 C 25,0 km/h
16.10.2013 02:00 11,3 C 76 % 1007,9 hPa 0,0 l/m 3,9 km/h N 7,2 C 11,3 C 14,1 km/h
16.10.2013 03:00 11,0 C 75 % 1007,5 hPa 0,0 l/m 3,6 km/h N 6,8 C 11,0 C 16,1 km/h
16.10.2013 04:00 10,4 C 78 % 1007,3 hPa 0,3 l/m 1,9 km/h N 6,7 C 10,4 C 9,6 km/h
16.10.2013 05:00 9,9 C 80 % 1007,2 hPa 0,3 l/m 2,2 km/h N 6,6 C 9,9 C 8,8 km/h
16.10.2013 06:00 9,9 C 79 % 1007,0 hPa 0,0 l/m 8,2 km/h N 6,4 C 8,0 C 27,4 km/h
16.10.2013 07:00 10,0 C 79 % 1007,6 hPa 0,0 l/m 13,9 km/h N 6,6 C 5,7 C 29,0 km/h
16.10.2013 08:00 9,9 C 79 % 1007,5 hPa 0,0 l/m 12,8 km/h N 6,3 C 6,0 C 32,6 km/h
16.10.2013 09:00 10,2 C 78 % 1007,9 hPa 0,0 l/m 12,1 km/h N 6,4 C 6,7 C 30,2 km/h
16.10.2013 10:00 10,1 C 78 % 1008,7 hPa 0,0 l/m 14,6 km/h N 6,4 C 5,5 C 34,6 km/h
16.10.2013 11:00 10,3 C 77 % 1009,5 hPa 0,0 l/m 14,8 km/h N 6,4 C 5,6 C 34,2 km/h
16.10.2013 12:00 10,8 C 74 % 1009,8 hPa 0,0 l/m 15,4 km/h N 6,3 C 5,9 C 32,2 km/h
16.10.2013 13:00 10,9 C 74 % 1009,9 hPa 0,0 l/m 15,3 km/h N 6,3 C 6,1 C 33,4 km/h
16.10.2013 14:00 11,3 C 73 % 1009,6 hPa 0,0 l/m 16,6 km/h N 6,6 C 6,2 C 35,4 km/h
16.10.2013 15:00 11,5 C 72 % 1010,0 hPa 0,0 l/m 13,9 km/h N 6,6 C 7,4 C 32,2 km/h
16.10.2013 16:00 11,6 C 70 % 1010,2 hPa 0,0 l/m 11,0 km/h N 6,2 C 8,8 C 25,3 km/h
16.10.2013 17:00 11,2 C 68 % 1010,8 hPa 0,0 l/m 12,4 km/h N 5,6 C 7,7 C 32,6 km/h
16.10.2013 18:00 10,8 C 70 % 1012,0 hPa 0,0 l/m 12,3 km/h N 5,5 C 7,3 C 30,2 km/h
16.10.2013 19:00 10,5 C 75 % 1013,0 hPa 0,0 l/m 13,1 km/h N 6,3 C 6,6 C 29,8 km/h
16.10.2013 20:00 10,1 C 75 % 1013,5 hPa 0,0 l/m 12,1 km/h N 5,9 C 6,6 C 31,4 km/h
16.10.2013 21:00 10,0 C 75 % 1014,0 hPa 0,0 l/m 11,5 km/h N 5,7 C 6,8 C 30,6 km/h
16.10.2013 22:00 9,6 C 78 % 1014,6 hPa 0,0 l/m 9,9 km/h N 5,9 C 7,2 C 26,2 km/h
16.10.2013 23:00 9,0 C 78 % 1015,0 hPa 0,0 l/m 7,8 km/h N 5,5 C 8,0 C 26,6 km/h
17.10.2013 00:00 8,7 C 79 % 1015,3 hPa 0,0 l/m 7,8 km/h N 5,2 C 7,6 C 23,3 km/h
17.10.2013 01:00 8,5 C 81 % 1015,3 hPa 0,0 l/m 7,9 km/h N 5,3 C 7,3 C 24,1 km/h
17.10.2013 02:00 8,6 C 80 % 1015,1 hPa 0,0 l/m 10,1 km/h N 5,3 C 6,0 C 24,1 km/h
17.10.2013 03:00 8,4 C 80 % 1015,3 hPa 0,0 l/m 7,6 km/h N 5,1 C 7,2 C 18,5 km/h
17.10.2013 04:00 8,0 C 81 % 1015,4 hPa 0,0 l/m 4,0 km/h N 4,9 C 8,0 C 15,7 km/h
17.10.2013 05:00 7,8 C 81 % 1015,5 hPa 0,0 l/m 3,8 km/h N 4,7 C 7,8 C 12,1 km/h
17.10.2013 06:00 6,5 C 82 % 1015,4 hPa 0,0 l/m 0,3 km/h N 3,7 C 6,5 C 4,0 km/h
17.10.2013 07:00 5,6 C 85 % 1015,5 hPa 0,0 l/m 0,0 km/h N 3,2 C 5,6 C 0,8 km/h
17.10.2013 08:00 6,4 C 83 % 1015,4 hPa 0,0 l/m 1,9 km/h N 3,8 C 6,4 C 7,2 km/h
17.10.2013 09:00 9,9 C 79 % 1015,2 hPa 0,0 l/m 3,8 km/h N 6,5 C 9,9 C 10,5 km/h
17.10.2013 10:00 11,6 C 72 % 1015,1 hPa 0,0 l/m 4,6 km/h N 6,6 C 11,6 C 16,5 km/h
17.10.2013 11:00 11,6 C 78 % 1015,5 hPa 0,0 l/m 9,9 km/h N 7,9 C 9,4 C 26,1 km/h
17.10.2013 12:00 11,5 C 80 % 1015,5 hPa 0,3 l/m 16,5 km/h N 8,1 C 6,4 C 39,8 km/h
17.10.2013 13:00 12,3 C 73 % 1015,2 hPa 0,0 l/m 17,6 km/h N 7,5 C 7,2 C 43,9 km/h
17.10.2013 14:00 13,6 C 65 % 1015,1 hPa 0,0 l/m 17,4 km/h N 7,1 C 8,8 C 38,2 km/h
17.10.2013 15:00 14,3 C 65 % 1015,5 hPa 0,0 l/m 11,2 km/h N 7,8 C 11,8 C 28,6 km/h
17.10.2013 16:00 14,6 C 65 % 1015,5 hPa 0,0 l/m 8,4 km/h N 8,1 C 13,5 C 20,9 km/h
17.10.2013 17:00 14,5 C 62 % 1015,3 hPa 0,0 l/m 4,1 km/h N 7,3 C 14,5 C 15,7 km/h
17.10.2013 18:00 13,1 C 68 % 1015,3 hPa 0,0 l/m 1,8 km/h N 7,3 C 13,1 C 9,6 km/h
17.10.2013 19:00 12,8 C 71 % 1015,6 hPa 0,0 l/m 3,7 km/h N 7,5 C 12,8 C 18,9 km/h
17.10.2013 20:00 12,9 C 68 % 1015,5 hPa 0,0 l/m 2,0 km/h N 7,0 C 12,9 C 10,1 km/h
17.10.2013 21:00 12,4 C 70 % 1015,2 hPa 0,0 l/m 0,5 km/h N 7,0 C 12,4 C 5,2 km/h
17.10.2013 22:00 12,1 C 72 % 1014,8 hPa 0,0 l/m 0,7 km/h N 7,3 C 12,1 C 10,4 km/h
17.10.2013 23:00 12,6 C 70 % 1014,4 hPa 0,0 l/m 0,9 km/h N 7,3 C 12,6 C 8,0 km/h
18.10.2013 00:00 13,8 C 64 % 1014,0 hPa 0,0 l/m 1,7 km/h N 7,1 C 13,8 C 12,1 km/h
18.10.2013 01:00 14,5 C 62 % 1013,4 hPa 0,0 l/m 6,0 km/h N 7,3 C 14,0 C 23,4 km/h
18.10.2013 02:00 14,8 C 61 % 1012,9 hPa 0,0 l/m 12,3 km/h N 7,3 C 12,0 C 35,4 km/h
18.10.2013 03:00 14,1 C 68 % 1012,9 hPa 0,5 l/m 18,5 km/h N 8,2 C 9,0 C 41,8 km/h
18.10.2013 04:00 12,4 C 79 % 1013,7 hPa 1,0 l/m 14,9 km/h N 8,9 C 8,1 C 37,0 km/h
18.10.2013 05:00 12,9 C 75 % 1013,6 hPa 0,0 l/m 15,9 km/h N 8,5 C 8,4 C 40,6 km/h
18.10.2013 06:00 13,1 C 73 % 1013,7 hPa 0,0 l/m 16,8 km/h N 8,4 C 8,3 C 37,0 km/h
18.10.2013 07:00 12,9 C 74 % 1014,8 hPa 0,0 l/m 12,6 km/h N 8,4 C 9,6 C 34,6 km/h
18.10.2013 08:00 12,4 C 74 % 1015,8 hPa 0,0 l/m 10,0 km/h N 7,8 C 10,3 C 24,9 km/h
18.10.2013 09:00 12,6 C 70 % 1016,8 hPa 0,0 l/m 7,5 km/h N 7,3 C 11,6 C 24,5 km/h
18.10.2013 10:00 13,2 C 67 % 1017,1 hPa 0,0 l/m 9,7 km/h N 7,2 C 11,3 C 23,7 km/h
18.10.2013 11:00 13,4 C 67 % 1017,4 hPa 0,0 l/m 6,2 km/h N 7,4 C 13,1 C 20,1 km/h
18.10.2013 12:00 13,5 C 66 % 1017,2 hPa 0,0 l/m 5,3 km/h N 7,3 C 13,5 C 16,1 km/h
18.10.2013 13:00 13,9 C 65 % 1017,0 hPa 0,0 l/m 3,0 km/h N 7,4 C 13,9 C 9,3 km/h
18.10.2013 14:00 14,3 C 63 % 1017,1 hPa 0,0 l/m 3,5 km/h N 7,2 C 14,3 C 12,1 km/h
18.10.2013 15:00 14,5 C 61 % 1017,4 hPa 0,0 l/m 2,3 km/h N 7,1 C 14,5 C 9,7 km/h
18.10.2013 16:00 14,4 C 62 % 1017,7 hPa 0,0 l/m 1,3 km/h N 7,2 C 14,4 C 7,2 km/h
18.10.2013 17:00 13,6 C 66 % 1018,3 hPa 0,0 l/m 0,2 km/h N 7,3 C 13,6 C 4,0 km/h
18.10.2013 18:00 12,7 C 62 % 1019,1 hPa 0,0 l/m 1,3 km/h N 5,6 C 12,7 C 8,9 km/h
18.10.2013 19:00 11,5 C 67 % 1019,9 hPa 0,0 l/m 0,1 km/h N 5,6 C 11,5 C 2,4 km/h
18.10.2013 20:00 10,7 C 69 % 1020,4 hPa 0,0 l/m 1,0 km/h N 5,3 C 10,7 C 6,4 km/h
18.10.2013 21:00 10,5 C 70 % 1020,8 hPa 0,0 l/m 0,4 km/h N 5,2 C 10,5 C 4,4 km/h
18.10.2013 22:00 9,9 C 74 % 1021,2 hPa 0,0 l/m 0,0 km/h N 5,3 C 9,9 C 0,0 km/h
18.10.2013 23:00 9,1 C 78 % 1021,3 hPa 0,0 l/m 0,0 km/h N 5,4 C 9,1 C 0,8 km/h
19.10.2013 00:00 7,9 C 78 % 1021,5 hPa 0,0 l/m 0,0 km/h N 4,3 C 7,9 C 0,0 km/h
19.10.2013 01:00 6,6 C 82 % 1021,6 hPa 0,0 l/m 0,0 km/h N 3,6 C 6,6 C 0,0 km/h
19.10.2013 02:00 5,9 C 84 % 1021,8 hPa 0,0 l/m 0,0 km/h N 3,3 C 5,9 C 0,0 km/h
19.10.2013 03:00 5,2 C 85 % 1021,6 hPa 0,0 l/m 0,0 km/h N 2,8 C 5,2 C 0,4 km/h
19.10.2013 04:00 5,6 C 84 % 1021,8 hPa 0,0 l/m 0,0 km/h N 3,1 C 5,6 C 0,0 km/h
19.10.2013 05:00 5,5 C 84 % 1021,8 hPa 0,0 l/m 0,0 km/h N 3,0 C 5,5 C 1,2 km/h
19.10.2013 06:00 4,8 C 84 % 1021,7 hPa 0,0 l/m 0,0 km/h N 2,3 C 4,8 C 0,0 km/h
19.10.2013 07:00 4,2 C 84 % 1021,8 hPa 0,0 l/m 0,0 km/h N 1,8 C 4,2 C 0,0 km/h
19.10.2013 08:00 4,1 C 83 % 1022,1 hPa 0,0 l/m 0,0 km/h N 1,5 C 4,1 C 0,0 km/h
19.10.2013 09:00 7,3 C 80 % 1022,1 hPa 0,0 l/m 0,3 km/h N 4,1 C 7,3 C 2,4 km/h
19.10.2013 10:00 11,1 C 79 % 1021,5 hPa 0,0 l/m 2,5 km/h N 7,5 C 11,1 C 11,3 km/h
19.10.2013 11:00 13,9 C 65 % 1021,0 hPa 0,0 l/m 7,4 km/h N 7,4 C 13,3 C 22,5 km/h
19.10.2013 12:00 15,1 C 61 % 1020,5 hPa 0,0 l/m 7,5 km/h N 7,5 C 14,4 C 22,5 km/h
19.10.2013 13:00 16,5 C 56 % 1019,8 hPa 0,0 l/m 7,5 km/h N 7,7 C 15,9 C 20,9 km/h
19.10.2013 14:00 16,9 C 55 % 1019,4 hPa 0,0 l/m 10,1 km/h N 7,9 C 15,2 C 23,3 km/h
19.10.2013 15:00 16,7 C 56 % 1019,0 hPa 0,0 l/m 10,5 km/h N 7,9 C 14,8 C 22,9 km/h
19.10.2013 16:00 16,4 C 58 % 1018,8 hPa 0,0 l/m 9,9 km/h N 8,0 C 14,7 C 21,3 km/h
19.10.2013 17:00 15,6 C 62 % 1018,8 hPa 0,0 l/m 4,3 km/h N 8,3 C 15,3 C 14,1 km/h
19.10.2013 18:00 13,9 C 68 % 1019,0 hPa 0,0 l/m 2,0 km/h N 8,1 C 13,9 C 8,8 km/h
19.10.2013 19:00 12,8 C 73 % 1019,2 hPa 0,0 l/m 1,1 km/h N 8,0 C 12,8 C 7,2 km/h
19.10.2013 20:00 11,3 C 74 % 1019,2 hPa 0,0 l/m 0,0 km/h N 6,9 C 11,3 C 2,0 km/h
19.10.2013 21:00 8,6 C 78 % 1019,2 hPa 0,0 l/m 0,0 km/h N 5,1 C 8,6 C 0,0 km/h
19.10.2013 22:00 6,8 C 82 % 1019,2 hPa 0,0 l/m 0,0 km/h N 4,0 C 6,8 C 0,0 km/h
19.10.2013 23:00 6,0 C 84 % 1019,3 hPa 0,0 l/m 0,0 km/h N 3,5 C 6,0 C 0,0 km/h
20.10.2013 00:00 5,5 C 85 % 1019,4 hPa 0,0 l/m 0,0 km/h N 3,1 C 5,5 C 0,0 km/h
20.10.2013 01:00 5,1 C 84 % 1019,7 hPa 0,0 l/m 0,0 km/h N 2,6 C 5,1 C 0,0 km/h
20.10.2013 02:00 5,2 C 83 % 1019,6 hPa 0,0 l/m 0,0 km/h N 2,6 C 5,2 C 0,0 km/h
20.10.2013 03:00 4,8 C 83 % 1019,8 hPa 0,0 l/m 0,0 km/h N 2,1 C 4,8 C 0,0 km/h
20.10.2013 04:00 4,2 C 83 % 1020,3 hPa 0,0 l/m 0,0 km/h N 1,6 C 4,2 C 0,0 km/h
20.10.2013 05:00 3,7 C 83 % 1020,6 hPa 0,0 l/m 0,0 km/h N 1,0 C 3,7 C 0,0 km/h
20.10.2013 06:00 4,2 C 81 % 1020,4 hPa 0,0 l/m 0,0 km/h N 1,3 C 4,2 C 0,0 km/h
20.10.2013 07:00 6,1 C 80 % 1020,5 hPa 0,0 l/m 0,2 km/h N 2,9 C 6,1 C 2,0 km/h
20.10.2013 08:00 7,0 C 79 % 1021,1 hPa 0,0 l/m 0,1 km/h N 3,6 C 7,0 C 1,6 km/h
20.10.2013 09:00 7,7 C 79 % 1021,2 hPa 0,0 l/m 0,2 km/h N 4,2 C 7,7 C 2,0 km/h
20.10.2013 10:00 8,1 C 79 % 1021,3 hPa 0,0 l/m 0,6 km/h N 4,6 C 8,1 C 4,8 km/h
20.10.2013 11:00 8,4 C 78 % 1021,2 hPa 0,0 l/m 1,1 km/h N 4,8 C 8,4 C 5,6 km/h
20.10.2013 12:00 9,0 C 79 % 1020,8 hPa 0,0 l/m 2,1 km/h N 5,5 C 9,0 C 8,9 km/h
20.10.2013 13:00 10,1 C 80 % 1020,1 hPa 0,0 l/m 0,7 km/h N 6,8 C 10,1 C 4,8 km/h
20.10.2013 14:00 12,5 C 83 % 1019,3 hPa 0,0 l/m 0,7 km/h N 9,7 C 12,5 C 4,8 km/h
20.10.2013 15:00 14,2 C 79 % 1018,6 hPa 0,0 l/m 0,5 km/h N 10,6 C 14,2 C 4,8 km/h
20.10.2013 16:00 14,8 C 77 % 1018,1 hPa 0,0 l/m 0,6 km/h N 10,8 C 14,8 C 4,4 km/h
20.10.2013 17:00 14,1 C 77 % 1018,2 hPa 0,0 l/m 0,5 km/h N 10,0 C 14,1 C 4,0 km/h
20.10.2013 18:00 12,4 C 77 % 1018,1 hPa 0,0 l/m 0,0 km/h N 8,4 C 12,4 C 0,4 km/h
20.10.2013 19:00 10,0 C 81 % 1018,1 hPa 0,0 l/m 0,0 km/h N 6,8 C 10,0 C 0,0 km/h
20.10.2013 20:00 9,2 C 84 % 1018,3 hPa 0,0 l/m 0,0 km/h N 6,6 C 9,2 C 0,0 km/h
20.10.2013 21:00 9,5 C 83 % 1018,7 hPa 0,0 l/m 0,5 km/h N 6,7 C 9,5 C 4,8 km/h
20.10.2013 22:00 10,6 C 82 % 1019,0 hPa 0,0 l/m 0,6 km/h N 7,5 C 10,6 C 5,2 km/h
20.10.2013 23:00 11,0 C 83 % 1018,9 hPa 0,0 l/m 0,8 km/h N 8,1 C 11,0 C 5,6 km/h
Min-Datum _ 19.10.13 19.10.13 16.10.13 - 14.10.13 - 20.10.13 20.10.13 14.10.13
_ Min-Zeit 08:15 13:45 06:45 - 00:00 - 05:45 05:30 00:00
Minimum _ 3,6 C 54 % 1006,8 hPa - 0,0 km/h - 0,9 C 3,6 C 0,0 km/h
Max-Datum _ 15.10.13 17.10.13 14.10.13 18.10.13 17.10.13 - 15.10.13 15.10.13 17.10.13
_ Max-Zeit 14:30 07:30 09:15 04:15 13:45 - 17:45 14:30 13:45
Maximum _ 17,8 C 85 % 1023,0 hPa 1,0 l/m 22,3 km/h
N
- 11,1 C 17,8 C 51,5 km/h
N
Durchschnitt _ 10,6 C 76 % 1016,6 hPa #2,3 l/m 3,7 km/h N 6,5 C 9,9 C 10,6 km/h